sensor_id;sensor_type;location;lat;lon;timestamp;P1;durP1;ratioP1;P2;durP2;ratioP2
11699;SDS011;5906;51.660;6.674;2024-01-30T00:02:17;21.63;;;12.50;;
11699;SDS011;5906;51.660;6.674;2024-01-30T00:04:44;20.87;;;12.00;;
11699;SDS011;5906;51.660;6.674;2024-01-30T00:07:11;17.40;;;11.53;;
11699;SDS011;5906;51.660;6.674;2024-01-30T00:09:38;22.50;;;11.40;;
11699;SDS011;5906;51.660;6.674;2024-01-30T00:12:06;17.77;;;11.00;;
11699;SDS011;5906;51.660;6.674;2024-01-30T00:14:33;16.60;;;11.07;;
11699;SDS011;5906;51.660;6.674;2024-01-30T00:17:00;20.93;;;10.97;;
11699;SDS011;5906;51.660;6.674;2024-01-30T00:19:27;17.10;;;11.10;;
11699;SDS011;5906;51.660;6.674;2024-01-30T00:21:54;20.00;;;12.20;;
11699;SDS011;5906;51.660;6.674;2024-01-30T00:24:21;16.20;;;11.57;;
11699;SDS011;5906;51.660;6.674;2024-01-30T00:26:48;17.60;;;10.70;;
11699;SDS011;5906;51.660;6.674;2024-01-30T00:29:15;16.67;;;11.67;;
11699;SDS011;5906;51.660;6.674;2024-01-30T00:31:46;21.20;;;12.73;;
11699;SDS011;5906;51.660;6.674;2024-01-30T00:34:12;19.53;;;11.83;;
11699;SDS011;5906;51.660;6.674;2024-01-30T00:36:40;22.23;;;12.53;;
11699;SDS011;5906;51.660;6.674;2024-01-30T00:39:07;17.27;;;11.70;;
11699;SDS011;5906;51.660;6.674;2024-01-30T00:41:35;26.90;;;14.03;;
11699;SDS011;5906;51.660;6.674;2024-01-30T00:44:03;28.90;;;14.30;;
11699;SDS011;5906;51.660;6.674;2024-01-30T00:46:30;26.97;;;13.20;;
11699;SDS011;5906;51.660;6.674;2024-01-30T00:48:57;26.90;;;13.83;;
11699;SDS011;5906;51.660;6.674;2024-01-30T00:51:24;21.63;;;13.83;;
11699;SDS011;5906;51.660;6.674;2024-01-30T00:53:51;21.17;;;13.53;;
11699;SDS011;5906;51.660;6.674;2024-01-30T00:56:18;23.23;;;13.40;;
11699;SDS011;5906;51.660;6.674;2024-01-30T00:58:45;26.00;;;13.73;;
11699;SDS011;5906;51.660;6.674;2024-01-30T01:01:13;25.50;;;12.07;;
11699;SDS011;5906;51.660;6.674;2024-01-30T01:03:41;20.30;;;12.73;;
11699;SDS011;5906;51.660;6.674;2024-01-30T01:06:10;22.50;;;12.20;;
11699;SDS011;5906;51.660;6.674;2024-01-30T01:08:37;20.63;;;11.53;;
11699;SDS011;5906;51.660;6.674;2024-01-30T01:11:05;29.23;;;13.27;;
11699;SDS011;5906;51.660;6.674;2024-01-30T01:13:32;20.77;;;13.10;;
11699;SDS011;5906;51.660;6.674;2024-01-30T01:15:59;23.23;;;12.33;;
11699;SDS011;5906;51.660;6.674;2024-01-30T01:18:26;23.20;;;11.80;;
11699;SDS011;5906;51.660;6.674;2024-01-30T01:20:53;23.37;;;11.97;;
11699;SDS011;5906;51.660;6.674;2024-01-30T01:23:20;20.73;;;12.40;;
11699;SDS011;5906;51.660;6.674;2024-01-30T01:25:47;22.23;;;12.17;;
11699;SDS011;5906;51.660;6.674;2024-01-30T01:28:14;21.53;;;10.90;;
11699;SDS011;5906;51.660;6.674;2024-01-30T01:30:41;17.63;;;11.40;;
11699;SDS011;5906;51.660;6.674;2024-01-30T01:33:09;20.40;;;11.50;;
11699;SDS011;5906;51.660;6.674;2024-01-30T01:35:37;24.53;;;12.40;;
11699;SDS011;5906;51.660;6.674;2024-01-30T01:38:04;23.03;;;12.40;;
11699;SDS011;5906;51.660;6.674;2024-01-30T01:40:31;25.80;;;12.27;;
11699;SDS011;5906;51.660;6.674;2024-01-30T01:42:58;18.43;;;10.73;;
11699;SDS011;5906;51.660;6.674;2024-01-30T01:45:25;24.43;;;10.97;;
11699;SDS011;5906;51.660;6.674;2024-01-30T01:47:52;22.50;;;12.13;;
11699;SDS011;5906;51.660;6.674;2024-01-30T01:50:20;21.90;;;11.43;;
11699;SDS011;5906;51.660;6.674;2024-01-30T01:52:50;24.03;;;11.30;;
11699;SDS011;5906;51.660;6.674;2024-01-30T01:55:18;18.20;;;11.20;;
11699;SDS011;5906;51.660;6.674;2024-01-30T01:57:53;22.03;;;11.30;;
11699;SDS011;5906;51.660;6.674;2024-01-30T02:00:20;21.57;;;11.37;;
11699;SDS011;5906;51.660;6.674;2024-01-30T02:02:47;16.60;;;10.30;;
11699;SDS011;5906;51.660;6.674;2024-01-30T02:05:16;20.47;;;11.47;;
11699;SDS011;5906;51.660;6.674;2024-01-30T02:07:43;18.97;;;10.13;;
11699;SDS011;5906;51.660;6.674;2024-01-30T02:10:11;22.73;;;12.10;;
11699;SDS011;5906;51.660;6.674;2024-01-30T02:12:38;14.77;;;11.23;;
11699;SDS011;5906;51.660;6.674;2024-01-30T02:15:06;22.27;;;11.10;;
11699;SDS011;5906;51.660;6.674;2024-01-30T02:17:34;18.20;;;10.00;;
11699;SDS011;5906;51.660;6.674;2024-01-30T02:20:01;17.07;;;9.87;;
11699;SDS011;5906;51.660;6.674;2024-01-30T02:22:29;20.20;;;11.10;;
11699;SDS011;5906;51.660;6.674;2024-01-30T02:24:58;19.50;;;11.00;;
11699;SDS011;5906;51.660;6.674;2024-01-30T02:27:25;16.50;;;10.17;;
11699;SDS011;5906;51.660;6.674;2024-01-30T02:29:52;16.43;;;10.50;;
11699;SDS011;5906;51.660;6.674;2024-01-30T02:32:19;13.37;;;9.70;;
11699;SDS011;5906;51.660;6.674;2024-01-30T02:34:46;18.10;;;9.93;;
11699;SDS011;5906;51.660;6.674;2024-01-30T02:37:13;21.67;;;12.13;;
11699;SDS011;5906;51.660;6.674;2024-01-30T02:39:40;19.00;;;10.70;;
11699;SDS011;5906;51.660;6.674;2024-01-30T02:42:07;29.33;;;11.27;;
11699;SDS011;5906;51.660;6.674;2024-01-30T02:44:34;16.90;;;10.33;;
11699;SDS011;5906;51.660;6.674;2024-01-30T02:47:00;17.57;;;11.20;;
11699;SDS011;5906;51.660;6.674;2024-01-30T02:49:27;18.20;;;12.60;;
11699;SDS011;5906;51.660;6.674;2024-01-30T02:51:54;16.17;;;10.67;;
11699;SDS011;5906;51.660;6.674;2024-01-30T02:54:23;19.33;;;10.80;;
11699;SDS011;5906;51.660;6.674;2024-01-30T02:56:50;21.33;;;10.63;;
11699;SDS011;5906;51.660;6.674;2024-01-30T02:59:17;22.30;;;11.17;;
11699;SDS011;5906;51.660;6.674;2024-01-30T03:01:44;21.03;;;11.47;;
11699;SDS011;5906;51.660;6.674;2024-01-30T03:04:12;17.97;;;10.60;;
11699;SDS011;5906;51.660;6.674;2024-01-30T03:06:44;16.73;;;10.97;;
11699;SDS011;5906;51.660;6.674;2024-01-30T03:09:12;14.10;;;10.87;;
11699;SDS011;5906;51.660;6.674;2024-01-30T03:11:40;19.33;;;11.47;;
11699;SDS011;5906;51.660;6.674;2024-01-30T03:14:08;20.70;;;12.63;;
11699;SDS011;5906;51.660;6.674;2024-01-30T03:16:37;23.20;;;11.50;;
11699;SDS011;5906;51.660;6.674;2024-01-30T03:19:07;21.20;;;12.53;;
11699;SDS011;5906;51.660;6.674;2024-01-30T03:21:35;26.40;;;13.40;;
11699;SDS011;5906;51.660;6.674;2024-01-30T03:24:03;26.90;;;13.57;;
11699;SDS011;5906;51.660;6.674;2024-01-30T03:26:30;24.90;;;14.03;;
11699;SDS011;5906;51.660;6.674;2024-01-30T03:28:57;21.20;;;13.67;;
11699;SDS011;5906;51.660;6.674;2024-01-30T03:31:24;23.10;;;13.27;;
11699;SDS011;5906;51.660;6.674;2024-01-30T03:33:51;29.20;;;13.57;;
11699;SDS011;5906;51.660;6.674;2024-01-30T03:36:18;25.27;;;14.70;;
11699;SDS011;5906;51.660;6.674;2024-01-30T03:38:45;25.63;;;14.70;;
11699;SDS011;5906;51.660;6.674;2024-01-30T03:41:12;28.80;;;14.67;;
11699;SDS011;5906;51.660;6.674;2024-01-30T03:43:40;23.37;;;13.07;;
11699;SDS011;5906;51.660;6.674;2024-01-30T03:46:07;23.87;;;13.77;;
11699;SDS011;5906;51.660;6.674;2024-01-30T03:48:34;22.80;;;13.30;;
11699;SDS011;5906;51.660;6.674;2024-01-30T03:51:01;22.20;;;13.57;;
11699;SDS011;5906;51.660;6.674;2024-01-30T03:53:28;26.30;;;14.97;;
11699;SDS011;5906;51.660;6.674;2024-01-30T03:55:54;21.63;;;14.47;;
11699;SDS011;5906;51.660;6.674;2024-01-30T03:58:21;25.53;;;13.77;;
11699;SDS011;5906;51.660;6.674;2024-01-30T04:00:49;22.77;;;14.40;;
11699;SDS011;5906;51.660;6.674;2024-01-30T04:03:16;25.20;;;13.57;;
11699;SDS011;5906;51.660;6.674;2024-01-30T04:05:43;22.77;;;13.57;;
11699;SDS011;5906;51.660;6.674;2024-01-30T04:08:10;19.40;;;12.73;;
11699;SDS011;5906;51.660;6.674;2024-01-30T04:10:37;19.33;;;12.07;;
11699;SDS011;5906;51.660;6.674;2024-01-30T04:13:04;17.60;;;12.67;;
11699;SDS011;5906;51.660;6.674;2024-01-30T04:15:33;19.60;;;12.97;;
11699;SDS011;5906;51.660;6.674;2024-01-30T04:18:01;20.80;;;11.37;;
11699;SDS011;5906;51.660;6.674;2024-01-30T04:20:28;25.93;;;12.23;;
11699;SDS011;5906;51.660;6.674;2024-01-30T04:22:55;20.87;;;12.10;;
11699;SDS011;5906;51.660;6.674;2024-01-30T04:25:22;21.23;;;11.87;;
11699;SDS011;5906;51.660;6.674;2024-01-30T04:27:50;21.23;;;11.50;;
11699;SDS011;5906;51.660;6.674;2024-01-30T04:30:17;18.93;;;11.27;;
11699;SDS011;5906;51.660;6.674;2024-01-30T04:32:44;31.17;;;13.03;;
11699;SDS011;5906;51.660;6.674;2024-01-30T04:35:10;21.10;;;12.80;;
11699;SDS011;5906;51.660;6.674;2024-01-30T04:37:38;19.20;;;11.47;;
11699;SDS011;5906;51.660;6.674;2024-01-30T04:40:05;20.07;;;11.47;;
11699;SDS011;5906;51.660;6.674;2024-01-30T04:42:32;20.50;;;11.80;;
11699;SDS011;5906;51.660;6.674;2024-01-30T04:44:59;19.47;;;11.33;;
11699;SDS011;5906;51.660;6.674;2024-01-30T04:47:26;18.67;;;12.37;;
11699;SDS011;5906;51.660;6.674;2024-01-30T04:49:53;22.47;;;11.80;;
11699;SDS011;5906;51.660;6.674;2024-01-30T04:52:20;18.77;;;11.67;;
11699;SDS011;5906;51.660;6.674;2024-01-30T04:54:47;18.73;;;11.77;;
11699;SDS011;5906;51.660;6.674;2024-01-30T04:57:14;20.20;;;11.37;;
11699;SDS011;5906;51.660;6.674;2024-01-30T04:59:41;19.60;;;12.33;;
11699;SDS011;5906;51.660;6.674;2024-01-30T05:02:08;20.10;;;11.63;;
11699;SDS011;5906;51.660;6.674;2024-01-30T05:04:35;26.93;;;11.87;;
11699;SDS011;5906;51.660;6.674;2024-01-30T05:07:02;15.17;;;11.00;;
11699;SDS011;5906;51.660;6.674;2024-01-30T05:09:30;19.57;;;12.60;;
11699;SDS011;5906;51.660;6.674;2024-01-30T05:11:57;20.13;;;11.50;;
11699;SDS011;5906;51.660;6.674;2024-01-30T05:14:24;19.50;;;12.13;;
11699;SDS011;5906;51.660;6.674;2024-01-30T05:16:51;18.13;;;10.97;;
11699;SDS011;5906;51.660;6.674;2024-01-30T05:19:18;16.33;;;11.13;;
11699;SDS011;5906;51.660;6.674;2024-01-30T05:21:45;19.00;;;12.73;;
11699;SDS011;5906;51.660;6.674;2024-01-30T05:24:12;22.33;;;11.47;;
11699;SDS011;5906;51.660;6.674;2024-01-30T05:26:39;18.37;;;11.97;;
11699;SDS011;5906;51.660;6.674;2024-01-30T05:29:06;23.43;;;12.73;;
11699;SDS011;5906;51.660;6.674;2024-01-30T05:31:34;19.90;;;11.70;;
11699;SDS011;5906;51.660;6.674;2024-01-30T05:34:01;20.00;;;11.43;;
11699;SDS011;5906;51.660;6.674;2024-01-30T05:36:28;24.77;;;11.83;;
11699;SDS011;5906;51.660;6.674;2024-01-30T05:38:56;15.70;;;12.23;;
11699;SDS011;5906;51.660;6.674;2024-01-30T05:41:23;15.40;;;10.43;;
11699;SDS011;5906;51.660;6.674;2024-01-30T05:43:50;20.10;;;12.20;;
11699;SDS011;5906;51.660;6.674;2024-01-30T05:46:17;17.23;;;11.40;;
11699;SDS011;5906;51.660;6.674;2024-01-30T05:48:48;19.00;;;11.53;;
11699;SDS011;5906;51.660;6.674;2024-01-30T05:51:15;29.03;;;11.57;;
11699;SDS011;5906;51.660;6.674;2024-01-30T05:53:42;19.63;;;11.47;;
11699;SDS011;5906;51.660;6.674;2024-01-30T05:56:09;15.80;;;10.80;;
11699;SDS011;5906;51.660;6.674;2024-01-30T05:58:36;17.70;;;10.57;;
11699;SDS011;5906;51.660;6.674;2024-01-30T06:01:07;19.70;;;10.43;;
11699;SDS011;5906;51.660;6.674;2024-01-30T06:03:35;20.97;;;10.60;;
11699;SDS011;5906;51.660;6.674;2024-01-30T06:06:02;18.40;;;10.63;;
11699;SDS011;5906;51.660;6.674;2024-01-30T06:08:29;13.70;;;10.50;;
11699;SDS011;5906;51.660;6.674;2024-01-30T06:10:56;16.80;;;9.43;;
11699;SDS011;5906;51.660;6.674;2024-01-30T06:13:23;21.20;;;10.17;;
11699;SDS011;5906;51.660;6.674;2024-01-30T06:15:50;13.23;;;10.30;;
11699;SDS011;5906;51.660;6.674;2024-01-30T06:18:18;19.67;;;10.87;;
11699;SDS011;5906;51.660;6.674;2024-01-30T06:20:46;15.37;;;10.80;;
11699;SDS011;5906;51.660;6.674;2024-01-30T06:23:13;15.03;;;11.00;;
11699;SDS011;5906;51.660;6.674;2024-01-30T06:25:40;17.07;;;11.77;;
11699;SDS011;5906;51.660;6.674;2024-01-30T06:28:08;15.53;;;11.90;;
11699;SDS011;5906;51.660;6.674;2024-01-30T06:30:35;18.73;;;11.30;;
11699;SDS011;5906;51.660;6.674;2024-01-30T06:33:04;15.47;;;11.00;;
11699;SDS011;5906;51.660;6.674;2024-01-30T06:35:31;17.30;;;11.30;;
11699;SDS011;5906;51.660;6.674;2024-01-30T06:37:58;19.27;;;12.10;;
11699;SDS011;5906;51.660;6.674;2024-01-30T06:40:25;23.73;;;11.27;;
11699;SDS011;5906;51.660;6.674;2024-01-30T06:42:52;18.73;;;11.10;;
11699;SDS011;5906;51.660;6.674;2024-01-30T06:45:18;18.43;;;9.80;;
11699;SDS011;5906;51.660;6.674;2024-01-30T06:47:45;17.40;;;11.60;;
11699;SDS011;5906;51.660;6.674;2024-01-30T06:50:13;17.27;;;9.40;;
11699;SDS011;5906;51.660;6.674;2024-01-30T06:52:40;15.07;;;10.33;;
11699;SDS011;5906;51.660;6.674;2024-01-30T06:55:07;15.40;;;9.43;;
11699;SDS011;5906;51.660;6.674;2024-01-30T06:57:34;21.90;;;10.57;;
11699;SDS011;5906;51.660;6.674;2024-01-30T07:00:02;17.87;;;11.33;;
11699;SDS011;5906;51.660;6.674;2024-01-30T07:02:29;17.80;;;10.53;;
11699;SDS011;5906;51.660;6.674;2024-01-30T07:04:57;17.17;;;11.23;;
11699;SDS011;5906;51.660;6.674;2024-01-30T07:07:25;15.27;;;9.70;;
11699;SDS011;5906;51.660;6.674;2024-01-30T07:09:52;18.47;;;11.23;;
11699;SDS011;5906;51.660;6.674;2024-01-30T07:12:23;20.87;;;11.50;;
11699;SDS011;5906;51.660;6.674;2024-01-30T07:14:52;22.20;;;11.73;;
11699;SDS011;5906;51.660;6.674;2024-01-30T07:17:19;21.10;;;11.07;;
11699;SDS011;5906;51.660;6.674;2024-01-30T07:19:46;19.10;;;11.87;;
11699;SDS011;5906;51.660;6.674;2024-01-30T07:22:14;23.70;;;12.20;;
11699;SDS011;5906;51.660;6.674;2024-01-30T07:24:43;18.83;;;12.30;;
11699;SDS011;5906;51.660;6.674;2024-01-30T07:27:11;16.00;;;10.43;;
11699;SDS011;5906;51.660;6.674;2024-01-30T07:29:39;22.47;;;13.97;;
11699;SDS011;5906;51.660;6.674;2024-01-30T07:32:06;18.50;;;12.13;;
11699;SDS011;5906;51.660;6.674;2024-01-30T07:34:33;21.90;;;13.37;;
11699;SDS011;5906;51.660;6.674;2024-01-30T07:37:14;18.83;;;12.53;;
11699;SDS011;5906;51.660;6.674;2024-01-30T07:39:42;19.23;;;11.97;;
11699;SDS011;5906;51.660;6.674;2024-01-30T07:42:09;22.07;;;12.20;;
11699;SDS011;5906;51.660;6.674;2024-01-30T07:44:36;17.53;;;12.70;;
11699;SDS011;5906;51.660;6.674;2024-01-30T07:47:03;27.20;;;13.80;;
11699;SDS011;5906;51.660;6.674;2024-01-30T07:49:32;27.23;;;13.33;;
11699;SDS011;5906;51.660;6.674;2024-01-30T07:51:59;22.53;;;12.80;;
11699;SDS011;5906;51.660;6.674;2024-01-30T07:54:27;19.00;;;12.10;;
11699;SDS011;5906;51.660;6.674;2024-01-30T07:56:54;27.23;;;11.97;;
11699;SDS011;5906;51.660;6.674;2024-01-30T07:59:21;23.53;;;13.17;;
11699;SDS011;5906;51.660;6.674;2024-01-30T08:01:51;22.47;;;11.90;;
11699;SDS011;5906;51.660;6.674;2024-01-30T08:04:18;19.40;;;13.00;;
11699;SDS011;5906;51.660;6.674;2024-01-30T08:06:45;21.70;;;12.30;;
11699;SDS011;5906;51.660;6.674;2024-01-30T08:09:14;22.13;;;12.87;;
11699;SDS011;5906;51.660;6.674;2024-01-30T08:11:45;17.57;;;11.50;;
11699;SDS011;5906;51.660;6.674;2024-01-30T08:14:13;23.40;;;12.97;;
11699;SDS011;5906;51.660;6.674;2024-01-30T08:16:40;23.00;;;12.40;;
11699;SDS011;5906;51.660;6.674;2024-01-30T08:19:08;24.17;;;12.50;;
11699;SDS011;5906;51.660;6.674;2024-01-30T08:21:35;22.53;;;13.47;;
11699;SDS011;5906;51.660;6.674;2024-01-30T08:24:05;18.40;;;11.97;;
11699;SDS011;5906;51.660;6.674;2024-01-30T08:26:33;21.67;;;12.40;;
11699;SDS011;5906;51.660;6.674;2024-01-30T08:29:01;15.77;;;11.90;;
11699;SDS011;5906;51.660;6.674;2024-01-30T08:31:30;22.97;;;13.13;;
11699;SDS011;5906;51.660;6.674;2024-01-30T08:33:57;22.27;;;13.13;;
11699;SDS011;5906;51.660;6.674;2024-01-30T08:36:25;20.37;;;12.03;;
11699;SDS011;5906;51.660;6.674;2024-01-30T08:38:52;22.43;;;11.20;;
11699;SDS011;5906;51.660;6.674;2024-01-30T08:41:24;20.80;;;12.30;;
11699;SDS011;5906;51.660;6.674;2024-01-30T08:43:52;17.30;;;11.40;;
11699;SDS011;5906;51.660;6.674;2024-01-30T08:46:19;17.07;;;11.40;;
11699;SDS011;5906;51.660;6.674;2024-01-30T08:48:46;18.60;;;11.30;;
11699;SDS011;5906;51.660;6.674;2024-01-30T08:51:14;17.77;;;11.43;;
11699;SDS011;5906;51.660;6.674;2024-01-30T08:53:42;16.53;;;10.97;;
11699;SDS011;5906;51.660;6.674;2024-01-30T08:56:10;24.13;;;12.67;;
11699;SDS011;5906;51.660;6.674;2024-01-30T08:58:37;20.27;;;10.60;;
11699;SDS011;5906;51.660;6.674;2024-01-30T09:01:05;22.37;;;11.70;;
11699;SDS011;5906;51.660;6.674;2024-01-30T09:03:47;16.93;;;10.90;;
11699;SDS011;5906;51.660;6.674;2024-01-30T09:06:20;16.20;;;10.60;;
11699;SDS011;5906;51.660;6.674;2024-01-30T09:08:49;15.43;;;10.70;;
11699;SDS011;5906;51.660;6.674;2024-01-30T09:11:25;18.20;;;11.77;;
11699;SDS011;5906;51.660;6.674;2024-01-30T09:13:53;16.60;;;10.60;;
11699;SDS011;5906;51.660;6.674;2024-01-30T09:21:36;18.00;;;11.90;;
11699;SDS011;5906;51.660;6.674;2024-01-30T09:24:52;17.63;;;10.50;;
11699;SDS011;5906;51.660;6.674;2024-01-30T09:27:23;23.43;;;10.57;;
11699;SDS011;5906;51.660;6.674;2024-01-30T09:29:52;17.07;;;11.83;;
11699;SDS011;5906;51.660;6.674;2024-01-30T09:32:21;17.57;;;12.03;;
11699;SDS011;5906;51.660;6.674;2024-01-30T09:34:48;17.90;;;11.87;;
11699;SDS011;5906;51.660;6.674;2024-01-30T09:37:21;17.57;;;11.23;;
11699;SDS011;5906;51.660;6.674;2024-01-30T09:39:53;27.90;;;11.87;;
11699;SDS011;5906;51.660;6.674;2024-01-30T09:42:26;18.83;;;12.00;;
11699;SDS011;5906;51.660;6.674;2024-01-30T09:45:05;18.57;;;12.30;;
11699;SDS011;5906;51.660;6.674;2024-01-30T09:47:37;18.40;;;11.70;;
11699;SDS011;5906;51.660;6.674;2024-01-30T09:50:10;18.63;;;11.40;;
11699;SDS011;5906;51.660;6.674;2024-01-30T09:52:41;15.33;;;10.90;;
11699;SDS011;5906;51.660;6.674;2024-01-30T09:56:07;18.83;;;11.23;;
11699;SDS011;5906;51.660;6.674;2024-01-30T10:19:54;17.17;;;10.47;;
11699;SDS011;5906;51.660;6.674;2024-01-30T10:23:02;17.40;;;10.93;;
11699;SDS011;5906;51.660;6.674;2024-01-30T10:29:31;15.53;;;8.90;;
11699;SDS011;5906;51.660;6.674;2024-01-30T10:31:58;23.83;;;10.10;;
11699;SDS011;5906;51.660;6.674;2024-01-30T10:34:26;18.90;;;9.83;;
11699;SDS011;5906;51.660;6.674;2024-01-30T10:37:15;14.77;;;10.57;;
11699;SDS011;5906;51.660;6.674;2024-01-30T10:39:44;15.13;;;9.73;;
11699;SDS011;5906;51.660;6.674;2024-01-30T10:42:13;16.00;;;9.60;;
11699;SDS011;5906;51.660;6.674;2024-01-30T10:47:34;16.73;;;10.20;;
11699;SDS011;5906;51.660;6.674;2024-01-30T10:50:05;18.67;;;10.60;;
11699;SDS011;5906;51.660;6.674;2024-01-30T10:52:34;18.10;;;10.27;;
11699;SDS011;5906;51.660;6.674;2024-01-30T10:55:02;14.40;;;9.63;;
11699;SDS011;5906;51.660;6.674;2024-01-30T10:57:34;15.37;;;9.67;;
11699;SDS011;5906;51.660;6.674;2024-01-30T11:00:07;16.53;;;9.63;;
11699;SDS011;5906;51.660;6.674;2024-01-30T11:02:39;14.73;;;10.00;;
11699;SDS011;5906;51.660;6.674;2024-01-30T11:05:08;13.97;;;9.13;;
11699;SDS011;5906;51.660;6.674;2024-01-30T11:07:35;11.70;;;9.37;;
11699;SDS011;5906;51.660;6.674;2024-01-30T11:10:03;12.57;;;9.70;;
11699;SDS011;5906;51.660;6.674;2024-01-30T11:12:31;15.00;;;9.27;;
11699;SDS011;5906;51.660;6.674;2024-01-30T11:15:06;21.07;;;10.83;;
11699;SDS011;5906;51.660;6.674;2024-01-30T11:20:22;18.70;;;9.50;;
11699;SDS011;5906;51.660;6.674;2024-01-30T11:23:12;11.87;;;9.70;;
11699;SDS011;5906;51.660;6.674;2024-01-30T11:25:39;17.30;;;9.30;;
11699;SDS011;5906;51.660;6.674;2024-01-30T11:28:06;11.90;;;9.30;;
11699;SDS011;5906;51.660;6.674;2024-01-30T11:30:41;20.60;;;9.37;;
11699;SDS011;5906;51.660;6.674;2024-01-30T11:33:09;13.73;;;9.00;;
11699;SDS011;5906;51.660;6.674;2024-01-30T11:35:41;20.13;;;9.73;;
11699;SDS011;5906;51.660;6.674;2024-01-30T11:38:11;17.20;;;9.63;;
11699;SDS011;5906;51.660;6.674;2024-01-30T11:40:39;16.13;;;9.60;;
11699;SDS011;5906;51.660;6.674;2024-01-30T11:43:08;17.00;;;10.03;;
11699;SDS011;5906;51.660;6.674;2024-01-30T11:49:41;15.07;;;9.53;;
11699;SDS011;5906;51.660;6.674;2024-01-30T11:52:25;18.00;;;10.70;;
11699;SDS011;5906;51.660;6.674;2024-01-30T11:54:57;14.57;;;9.10;;
11699;SDS011;5906;51.660;6.674;2024-01-30T11:57:26;21.93;;;10.63;;
11699;SDS011;5906;51.660;6.674;2024-01-30T12:00:04;14.80;;;10.73;;
11699;SDS011;5906;51.660;6.674;2024-01-30T12:02:37;16.40;;;9.07;;
11699;SDS011;5906;51.660;6.674;2024-01-30T12:05:10;14.07;;;8.23;;
11699;SDS011;5906;51.660;6.674;2024-01-30T12:07:39;16.50;;;9.20;;
11699;SDS011;5906;51.660;6.674;2024-01-30T12:26:41;15.13;;;9.20;;
11699;SDS011;5906;51.660;6.674;2024-01-30T12:29:12;15.10;;;9.87;;
11699;SDS011;5906;51.660;6.674;2024-01-30T12:31:42;17.90;;;9.43;;
11699;SDS011;5906;51.660;6.674;2024-01-30T12:34:19;15.43;;;8.13;;
11699;SDS011;5906;51.660;6.674;2024-01-30T12:36:47;19.50;;;9.90;;
11699;SDS011;5906;51.660;6.674;2024-01-30T12:39:18;23.10;;;9.10;;
11699;SDS011;5906;51.660;6.674;2024-01-30T12:41:45;16.93;;;10.10;;
11699;SDS011;5906;51.660;6.674;2024-01-30T12:44:13;17.10;;;10.13;;
11699;SDS011;5906;51.660;6.674;2024-01-30T12:46:40;14.80;;;9.27;;
11699;SDS011;5906;51.660;6.674;2024-01-30T12:49:07;17.90;;;9.17;;
11699;SDS011;5906;51.660;6.674;2024-01-30T12:51:35;19.47;;;9.40;;
11699;SDS011;5906;51.660;6.674;2024-01-30T12:54:06;14.47;;;8.90;;
11699;SDS011;5906;51.660;6.674;2024-01-30T12:56:33;15.43;;;9.13;;
11699;SDS011;5906;51.660;6.674;2024-01-30T12:59:00;19.83;;;9.20;;
11699;SDS011;5906;51.660;6.674;2024-01-30T13:01:27;17.83;;;9.43;;
11699;SDS011;5906;51.660;6.674;2024-01-30T13:03:54;19.60;;;9.93;;
11699;SDS011;5906;51.660;6.674;2024-01-30T13:06:23;14.17;;;9.63;;
11699;SDS011;5906;51.660;6.674;2024-01-30T13:09:04;17.97;;;9.90;;
11699;SDS011;5906;51.660;6.674;2024-01-30T13:11:33;21.90;;;9.50;;
11699;SDS011;5906;51.660;6.674;2024-01-30T13:14:01;14.47;;;9.67;;
11699;SDS011;5906;51.660;6.674;2024-01-30T13:16:28;13.23;;;8.60;;
11699;SDS011;5906;51.660;6.674;2024-01-30T13:18:55;15.27;;;9.47;;
11699;SDS011;5906;51.660;6.674;2024-01-30T13:21:52;18.30;;;9.13;;
11699;SDS011;5906;51.660;6.674;2024-01-30T13:24:35;11.33;;;8.93;;
11699;SDS011;5906;51.660;6.674;2024-01-30T13:39:32;17.27;;;7.93;;
11699;SDS011;5906;51.660;6.674;2024-01-30T13:42:05;16.03;;;9.30;;
11699;SDS011;5906;51.660;6.674;2024-01-30T13:44:35;14.13;;;8.20;;
11699;SDS011;5906;51.660;6.674;2024-01-30T13:47:02;12.70;;;8.13;;
11699;SDS011;5906;51.660;6.674;2024-01-30T13:49:30;12.80;;;8.00;;
11699;SDS011;5906;51.660;6.674;2024-01-30T13:51:57;14.83;;;8.27;;
11699;SDS011;5906;51.660;6.674;2024-01-30T13:54:28;15.30;;;8.60;;
11699;SDS011;5906;51.660;6.674;2024-01-30T13:56:57;15.33;;;9.00;;
11699;SDS011;5906;51.660;6.674;2024-01-30T13:59:24;12.47;;;8.57;;
11699;SDS011;5906;51.660;6.674;2024-01-30T14:01:52;14.07;;;8.90;;
11699;SDS011;5906;51.660;6.674;2024-01-30T14:04:22;15.03;;;8.50;;
11699;SDS011;5906;51.660;6.674;2024-01-30T14:06:49;14.10;;;8.60;;
11699;SDS011;5906;51.660;6.674;2024-01-30T14:09:40;17.87;;;9.30;;
11699;SDS011;5906;51.660;6.674;2024-01-30T14:12:59;9.30;;;7.00;;
11699;SDS011;5906;51.660;6.674;2024-01-30T14:15:52;12.10;;;6.67;;
11699;SDS011;5906;51.660;6.674;2024-01-30T14:27:25;14.90;;;7.03;;
11699;SDS011;5906;51.660;6.674;2024-01-30T14:29:58;11.60;;;6.30;;
11699;SDS011;5906;51.660;6.674;2024-01-30T14:37:28;9.47;;;5.97;;
11699;SDS011;5906;51.660;6.674;2024-01-30T14:40:49;6.80;;;5.30;;
11699;SDS011;5906;51.660;6.674;2024-01-30T14:43:31;15.63;;;4.23;;
11699;SDS011;5906;51.660;6.674;2024-01-30T14:45:59;7.23;;;4.27;;
11699;SDS011;5906;51.660;6.674;2024-01-30T14:48:26;5.73;;;3.37;;
11699;SDS011;5906;51.660;6.674;2024-01-30T14:50:55;4.50;;;3.00;;
11699;SDS011;5906;51.660;6.674;2024-01-30T14:53:22;2.43;;;2.23;;
11699;SDS011;5906;51.660;6.674;2024-01-30T14:55:56;3.20;;;2.07;;
11699;SDS011;5906;51.660;6.674;2024-01-30T15:13:19;7.47;;;3.73;;
11699;SDS011;5906;51.660;6.674;2024-01-30T15:20:06;5.20;;;2.20;;
11699;SDS011;5906;51.660;6.674;2024-01-30T15:22:41;3.97;;;2.80;;
11699;SDS011;5906;51.660;6.674;2024-01-30T15:25:10;8.13;;;2.97;;
11699;SDS011;5906;51.660;6.674;2024-01-30T15:40:08;5.53;;;3.33;;
11699;SDS011;5906;51.660;6.674;2024-01-30T15:42:40;4.40;;;2.90;;
11699;SDS011;5906;51.660;6.674;2024-01-30T15:45:08;8.03;;;3.13;;
11699;SDS011;5906;51.660;6.674;2024-01-30T15:47:48;4.60;;;3.20;;
11699;SDS011;5906;51.660;6.674;2024-01-30T16:02:47;3.70;;;2.70;;
11699;SDS011;5906;51.660;6.674;2024-01-30T16:05:27;7.30;;;2.97;;
11699;SDS011;5906;51.660;6.674;2024-01-30T16:08:05;9.10;;;3.97;;
11699;SDS011;5906;51.660;6.674;2024-01-30T16:10:32;4.43;;;3.13;;
11699;SDS011;5906;51.660;6.674;2024-01-30T16:13:15;5.10;;;3.10;;
11699;SDS011;5906;51.660;6.674;2024-01-30T16:15:44;7.77;;;5.93;;
11699;SDS011;5906;51.660;6.674;2024-01-30T16:18:16;4.60;;;4.10;;
11699;SDS011;5906;51.660;6.674;2024-01-30T16:20:51;3.70;;;2.93;;
11699;SDS011;5906;51.660;6.674;2024-01-30T16:23:35;4.50;;;3.00;;
11699;SDS011;5906;51.660;6.674;2024-01-30T16:30:51;2.50;;;2.30;;
11699;SDS011;5906;51.660;6.674;2024-01-30T16:33:21;5.30;;;2.83;;
11699;SDS011;5906;51.660;6.674;2024-01-30T16:36:28;2.53;;;2.30;;
11699;SDS011;5906;51.660;6.674;2024-01-30T16:38:56;7.33;;;2.93;;
11699;SDS011;5906;51.660;6.674;2024-01-30T16:41:25;3.33;;;3.03;;
11699;SDS011;5906;51.660;6.674;2024-01-30T16:50:10;5.20;;;4.73;;
11699;SDS011;5906;51.660;6.674;2024-01-30T16:52:38;8.60;;;5.20;;
11699;SDS011;5906;51.660;6.674;2024-01-30T16:55:05;8.67;;;5.30;;
11699;SDS011;5906;51.660;6.674;2024-01-30T16:57:32;8.20;;;6.13;;
11699;SDS011;5906;51.660;6.674;2024-01-30T17:00:02;7.80;;;6.87;;
11699;SDS011;5906;51.660;6.674;2024-01-30T17:02:32;21.67;;;6.80;;
11699;SDS011;5906;51.660;6.674;2024-01-30T17:05:00;9.07;;;6.70;;
11699;SDS011;5906;51.660;6.674;2024-01-30T17:07:41;12.03;;;6.70;;
11699;SDS011;5906;51.660;6.674;2024-01-30T17:10:09;8.60;;;6.90;;
11699;SDS011;5906;51.660;6.674;2024-01-30T17:12:36;9.47;;;6.70;;
11699;SDS011;5906;51.660;6.674;2024-01-30T17:15:03;9.23;;;5.97;;